createdAt,value
2023-03-27T00:00:16.603Z,96072.81
2023-03-27T00:02:21.445Z,96070.19
2023-03-27T00:04:26.318Z,96074.00
2023-03-27T00:06:34.461Z,96085.28
2023-03-27T00:08:38.964Z,96083.47
2023-03-27T00:10:43.205Z,96086.47
2023-03-27T00:12:47.310Z,96085.84
2023-03-27T00:14:52.309Z,96096.09
2023-03-27T00:17:00.196Z,96093.47
2023-03-27T00:19:04.573Z,96095.28
2023-03-27T00:21:09.490Z,96108.19
2023-03-27T00:23:13.636Z,96099.53
2023-03-27T00:25:18.170Z,96112.63
2023-03-27T00:27:22.375Z,96112.63
2023-03-27T00:29:28.279Z,96110.81
2023-03-27T00:31:32.596Z,96112.41
2023-03-27T00:33:38.575Z,96119.63
2023-03-27T00:35:46.780Z,96116.41
2023-03-27T00:37:51.016Z,96106.75
2023-03-27T00:39:55.783Z,96109.16
2023-03-27T00:41:59.924Z,96117.84
2023-03-27T00:44:25.658Z,96116.22
2023-03-27T00:46:37.282Z,96119.63
2023-03-27T00:48:42.839Z,96126.50
2023-03-27T00:50:47.527Z,96125.69
2023-03-27T00:52:56.330Z,96128.50
2023-03-27T00:55:02.100Z,96130.94
2023-03-27T00:57:08.250Z,96135.31
2023-03-27T00:59:15.506Z,96146.00
2023-03-27T01:01:20.362Z,96148.41
2023-03-27T01:03:26.258Z,96135.31
2023-03-27T01:05:32.471Z,96144.97
2023-03-27T01:07:37.193Z,96147.78
2023-03-27T01:09:45.786Z,96144.19
2023-03-27T01:12:01.749Z,96144.19
2023-03-27T01:14:17.091Z,96144.97
2023-03-27T01:16:24.771Z,96155.44
2023-03-27T01:18:38.724Z,96151.84
2023-03-27T01:21:31.049Z,96158.88
2023-03-27T01:24:19.774Z,96156.06
2023-03-27T01:27:01.990Z,96162.31
2023-03-27T01:29:08.177Z,96158.69
2023-03-27T01:31:27.696Z,96173.75
2023-03-27T01:34:13.011Z,96172.31
2023-03-27T01:36:42.010Z,96179.16
2023-03-27T01:39:20.905Z,96180.00
2023-03-27T01:41:27.093Z,96184.38
2023-03-27T01:43:34.753Z,96184.38
2023-03-27T01:45:43.534Z,96183.59
2023-03-27T01:47:52.268Z,96188.00
2023-03-27T01:49:59.501Z,96181.19
2023-03-27T01:52:05.513Z,96192.06
2023-03-27T01:54:13.615Z,96192.25
2023-03-27T01:56:26.858Z,96187.00
2023-03-27T01:58:36.091Z,96202.69
2023-03-27T02:00:52.303Z,96200.91
2023-03-27T02:03:00.733Z,96202.34
2023-03-27T02:05:07.321Z,96207.94
2023-03-27T02:07:20.335Z,96209.13
2023-03-27T02:09:28.456Z,96215.97
2023-03-27T02:11:38.682Z,96219.41
2023-03-27T02:13:45.073Z,96219.41
2023-03-27T02:15:50.383Z,96216.78
2023-03-27T02:18:04.742Z,96223.63
2023-03-27T02:20:12.280Z,96229.84
2023-03-27T02:22:17.013Z,96216.97
2023-03-27T02:24:25.190Z,96230.25
2023-03-27T02:26:30.010Z,96241.94
2023-03-27T02:28:46.560Z,96241.34
2023-03-27T02:31:31.009Z,96244.13
2023-03-27T02:33:28.505Z,96242.13
2023-03-27T02:35:36.923Z,96248.34
2023-03-27T02:37:49.751Z,96252.78
2023-03-27T02:39:57.625Z,96244.91
2023-03-27T02:42:04.124Z,96255.22
2023-03-27T02:44:17.095Z,96253.41
2023-03-27T02:46:38.664Z,96258.63
2023-03-27T02:48:45.453Z,96262.84
2023-03-27T02:50:53.832Z,96268.09
2023-03-27T02:52:59.776Z,96269.72
2023-03-27T02:55:06.784Z,96271.53
2023-03-27T02:57:16.475Z,96280.56
2023-03-27T02:59:42.545Z,96275.69
2023-03-27T03:01:47.225Z,96284.16
2023-03-27T03:03:59.972Z,96292.81
2023-03-27T03:06:34.120Z,96296.25
2023-03-27T03:08:39.436Z,96293.00
2023-03-27T03:10:46.277Z,96296.59
2023-03-27T03:12:50.738Z,96292.81
2023-03-27T03:14:56.574Z,96311.09
2023-03-27T03:17:00.942Z,96314.72
2023-03-27T03:19:05.136Z,96318.16
2023-03-27T03:21:09.577Z,96326.47
2023-03-27T03:23:14.001Z,96324.19
2023-03-27T03:25:19.860Z,96327.63
2023-03-27T03:27:24.203Z,96335.66
2023-03-27T03:29:37.500Z,96335.03
2023-03-27T03:31:50.281Z,96348.91
2023-03-27T03:33:54.579Z,96344.69
2023-03-27T03:36:00.780Z,96354.13
2023-03-27T03:38:09.245Z,96369.66
2023-03-27T03:40:21.739Z,96358.19
2023-03-27T03:42:28.331Z,96366.88
2023-03-27T03:44:34.522Z,96369.81
2023-03-27T03:46:49.790Z,96376.50
2023-03-27T03:48:59.298Z,96384.00
2023-03-27T03:51:03.855Z,96377.94
2023-03-27T03:53:08.093Z,96378.31
2023-03-27T03:55:12.891Z,96384.53
2023-03-27T03:57:17.520Z,96379.09
2023-03-27T03:59:31.255Z,96388.75
2023-03-27T04:02:18.046Z,96385.50
2023-03-27T04:04:22.596Z,96381.72
2023-03-27T04:06:40.475Z,96392.00
2023-03-27T04:08:45.058Z,96381.56
2023-03-27T04:11:18.448Z,96381.38
2023-03-27T04:13:45.918Z,96385.78
2023-03-27T04:16:16.633Z,96384.00
2023-03-27T04:18:32.765Z,96395.25
2023-03-27T04:20:40.010Z,96408.50
2023-03-27T04:22:48.936Z,96415.19
2023-03-27T04:24:54.402Z,96416.19
2023-03-27T04:27:01.147Z,96418.97
2023-03-27T04:29:25.879Z,96423.22
2023-03-27T04:31:36.037Z,96431.06
2023-03-27T04:34:08.418Z,96436.94
2023-03-27T04:36:42.536Z,96438.91
2023-03-27T04:38:49.612Z,96444.31
2023-03-27T04:40:54.860Z,96447.56
2023-03-27T04:43:01.198Z,96451.16
2023-03-27T04:45:08.121Z,96454.41
2023-03-27T04:47:12.897Z,96460.81
2023-03-27T04:49:20.376Z,96459.84
2023-03-27T04:51:38.499Z,96458.03
2023-03-27T04:53:43.003Z,96456.38
2023-03-27T04:55:54.864Z,96461.44
2023-03-27T04:58:00.141Z,96470.31
2023-03-27T05:00:17.061Z,96474.34
2023-03-27T05:02:27.460Z,96470.31
2023-03-27T05:04:40.340Z,96486.00
2023-03-27T05:06:51.996Z,96485.38
2023-03-27T05:08:56.609Z,96495.63
2023-03-27T05:11:03.727Z,96493.00
2023-03-27T05:13:16.728Z,96515.47
2023-03-27T05:15:21.580Z,96504.47
2023-03-27T05:17:26.184Z,96516.53
2023-03-27T05:19:31.149Z,96513.94
2023-03-27T05:21:39.946Z,96526.41
2023-03-27T05:23:46.548Z,96534.06
2023-03-27T05:26:00.364Z,96534.84
2023-03-27T05:28:12.541Z,96538.47
2023-03-27T05:30:17.572Z,96536.03
2023-03-27T05:32:22.807Z,96557.97
2023-03-27T05:34:34.596Z,96565.50
2023-03-27T05:36:42.811Z,96568.25
2023-03-27T05:38:48.042Z,96560.56
2023-03-27T05:41:03.956Z,96572.84
2023-03-27T05:43:11.175Z,96576.09
2023-03-27T05:45:16.674Z,96584.75
2023-03-27T05:47:21.507Z,96585.72
2023-03-27T05:49:30.983Z,96587.53
2023-03-27T05:51:46.986Z,96602.41
2023-03-27T05:53:57.004Z,96601.78
2023-03-27T05:56:11.085Z,96611.44
2023-03-27T05:58:25.875Z,96611.59
2023-03-27T06:00:32.780Z,96623.66
2023-03-27T06:02:37.414Z,96631.72
2023-03-27T06:04:42.892Z,96633.00
2023-03-27T06:06:51.904Z,96639.19
2023-03-27T06:08:59.078Z,96650.19
2023-03-27T06:11:09.896Z,96653.59
2023-03-27T06:13:20.511Z,96660.28
2023-03-27T06:15:31.939Z,96654.25
2023-03-27T06:18:03.320Z,96666.69
2023-03-27T06:20:15.000Z,96670.94
2023-03-27T06:22:27.519Z,96671.09
2023-03-27T06:24:31.888Z,96684.19
2023-03-27T06:26:37.911Z,96673.72
2023-03-27T06:28:42.469Z,96684.66
2023-03-27T06:30:48.092Z,96674.84
2023-03-27T06:33:05.656Z,96664.81
2023-03-27T06:35:14.624Z,96675.25
2023-03-27T06:37:36.802Z,96679.03
2023-03-27T06:39:42.898Z,96695.66
2023-03-27T06:41:47.207Z,96692.81
2023-03-27T06:44:15.024Z,96695.66
2023-03-27T06:46:45.995Z,96703.03
2023-03-27T06:49:15.828Z,96689.31
2023-03-27T06:51:23.232Z,96717.25
2023-03-27T06:53:42.607Z,96708.44
2023-03-27T06:55:49.323Z,96699.59
2023-03-27T06:57:56.413Z,96710.06
2023-03-27T07:00:02.333Z,96714.47
2023-03-27T07:02:27.114Z,96717.56
2023-03-27T07:04:32.121Z,96713.19
2023-03-27T07:09:03.211Z,96737.53
2023-03-27T07:11:12.228Z,96735.41
2023-03-27T07:13:27.128Z,96744.41
2023-03-27T07:15:31.462Z,96745.41
2023-03-27T07:17:48.079Z,96753.25
2023-03-27T07:19:55.352Z,96759.97
2023-03-27T07:22:03.489Z,96767.59
2023-03-27T07:24:11.762Z,96773.84
2023-03-27T07:26:15.641Z,96787.56
2023-03-27T07:28:32.638Z,96798.13
2023-03-27T07:30:44.484Z,96801.59
2023-03-27T07:32:48.457Z,96807.16
2023-03-27T07:34:52.738Z,96816.19
2023-03-27T07:37:17.544Z,96832.84
2023-03-27T07:40:00.976Z,96829.25
2023-03-27T07:42:06.223Z,96838.59
2023-03-27T07:44:23.703Z,96856.91
2023-03-27T07:46:35.495Z,96846.84
2023-03-27T07:48:41.154Z,96860.94
2023-03-27T07:50:52.911Z,96865.88
2023-03-27T07:53:03.917Z,96863.44
2023-03-27T07:55:11.279Z,96880.44
2023-03-27T07:57:20.376Z,96889.75
2023-03-27T07:59:31.010Z,96896.31
2023-03-27T08:01:41.417Z,96896.47
2023-03-27T08:03:47.233Z,96902.69
2023-03-27T08:05:56.452Z,96909.25
2023-03-27T08:08:01.809Z,96899.44
2023-03-27T08:10:39.357Z,96912.34
2023-03-27T08:12:44.302Z,96911.19
2023-03-27T08:14:49.133Z,96916.44
2023-03-27T08:17:12.363Z,96941.78
2023-03-27T08:19:19.585Z,96928.50
2023-03-27T08:21:28.342Z,96945.84
2023-03-27T08:23:33.672Z,96950.44
2023-03-27T08:25:38.958Z,96946.81
2023-03-27T08:27:46.627Z,96943.56
2023-03-27T08:29:53.088Z,96944.38
2023-03-27T08:31:57.022Z,96961.53
2023-03-27T08:34:01.469Z,96953.38
2023-03-27T08:36:15.326Z,96955.34
2023-03-27T08:38:26.146Z,96964.97
2023-03-27T08:40:59.858Z,96971.06
2023-03-27T08:43:12.237Z,96972.81
2023-03-27T08:45:20.592Z,96974.28
2023-03-27T08:47:31.930Z,96980.88
2023-03-27T08:49:44.028Z,96990.97
2023-03-27T08:52:00.638Z,96998.03
2023-03-27T08:54:07.808Z,97005.53
2023-03-27T08:56:14.584Z,96991.78
2023-03-27T08:58:20.651Z,97002.75
2023-03-27T09:00:31.756Z,97000.28
2023-03-27T09:02:59.227Z,97006.84
2023-03-27T09:05:08.532Z,97010.09
2023-03-27T09:07:21.339Z,97021.22
2023-03-27T09:09:47.665Z,97015.84
2023-03-27T09:11:58.151Z,97020.72
2023-03-27T09:14:16.638Z,97022.69
2023-03-27T09:16:23.988Z,97030.38
2023-03-27T09:18:34.011Z,97030.53
2023-03-27T09:20:40.689Z,97037.41
2023-03-27T09:22:45.776Z,97032.84
2023-03-27T09:25:07.622Z,97037.56
2023-03-27T09:27:33.180Z,97045.56
2023-03-27T09:30:05.370Z,97053.25
2023-03-27T09:32:26.933Z,97056.03
2023-03-27T09:34:37.504Z,97056.69
2023-03-27T09:36:41.741Z,97059.66
2023-03-27T09:38:50.608Z,97066.69
2023-03-27T09:40:59.994Z,97073.69
2023-03-27T09:43:17.400Z,97065.03
2023-03-27T09:45:21.736Z,97072.88
2023-03-27T09:47:38.508Z,97073.69
2023-03-27T09:49:46.480Z,97076.66
2023-03-27T09:51:56.558Z,97077.00
2023-03-27T09:54:20.926Z,97076.16
2023-03-27T09:56:25.448Z,97089.56
2023-03-27T09:58:36.803Z,97090.53
2023-03-27T10:00:41.228Z,97093.34
2023-03-27T10:02:45.592Z,97104.28
2023-03-27T10:05:00.699Z,97111.97
2023-03-27T10:07:12.872Z,97111.16
2023-03-27T10:09:40.917Z,97122.75
2023-03-27T10:11:46.546Z,97124.25
2023-03-27T10:14:01.824Z,97121.78
2023-03-27T10:16:07.219Z,97129.13
2023-03-27T10:18:27.026Z,97136.84
2023-03-27T10:20:41.228Z,97140.97
2023-03-27T10:22:54.665Z,97147.16
2023-03-27T10:25:04.737Z,97144.19
2023-03-27T10:27:31.135Z,97144.03
2023-03-27T10:29:55.106Z,97145.50
2023-03-27T10:32:00.453Z,97145.66
2023-03-27T10:34:34.866Z,97147.31
2023-03-27T10:37:29.828Z,97150.56
2023-03-27T10:40:17.455Z,97150.41
2023-03-27T10:42:30.370Z,97146.78
2023-03-27T10:44:34.759Z,97144.88
2023-03-27T10:46:40.905Z,97157.81
2023-03-27T10:48:52.894Z,97164.28
2023-03-27T10:51:03.430Z,97162.41
2023-03-27T10:53:37.134Z,97166.84
2023-03-27T10:55:51.581Z,97172.44
2023-03-27T10:57:58.970Z,97173.59
2023-03-27T11:00:18.262Z,97179.00
2023-03-27T11:02:35.061Z,97184.25
2023-03-27T11:04:44.068Z,97179.38
2023-03-27T11:06:50.300Z,97183.59
2023-03-27T11:09:01.881Z,97172.97
2023-03-27T11:11:13.499Z,97177.53
2023-03-27T11:13:27.820Z,97175.91
2023-03-27T11:15:41.026Z,97181.44
2023-03-27T11:18:02.935Z,97183.56
2023-03-27T11:20:29.937Z,97187.69
2023-03-27T11:23:00.428Z,97189.66
2023-03-27T11:25:20.895Z,97200.78
2023-03-27T11:27:30.389Z,97196.66
2023-03-27T11:29:37.408Z,97200.13
2023-03-27T11:31:45.917Z,97199.63
2023-03-27T11:33:56.140Z,97203.38
2023-03-27T11:36:12.591Z,97200.09
2023-03-27T11:38:24.660Z,97210.91
2023-03-27T11:40:34.170Z,97212.72
2023-03-27T11:42:42.436Z,97217.94
2023-03-27T11:44:46.665Z,97220.56
2023-03-27T11:47:45.462Z,97218.09
2023-03-27T11:50:15.649Z,97227.56
2023-03-27T11:52:29.664Z,97228.41
2023-03-27T11:54:45.528Z,97230.84
2023-03-27T11:56:57.787Z,97238.22
2023-03-27T11:59:43.743Z,97234.78
2023-03-27T12:01:51.715Z,97233.28
2023-03-27T12:04:13.591Z,97227.25
2023-03-27T12:06:41.659Z,97235.94
2023-03-27T12:09:07.608Z,97232.81
2023-03-27T12:11:28.009Z,97236.91
2023-03-27T12:14:18.407Z,97232.00
2023-03-27T12:16:45.913Z,97233.31
2023-03-27T12:19:05.897Z,97241.66
2023-03-27T12:21:23.929Z,97251.84
2023-03-27T12:24:06.556Z,97242.03
2023-03-27T12:26:46.618Z,97247.59
2023-03-27T12:29:23.592Z,97244.50
2023-03-27T12:31:51.469Z,97257.41
2023-03-27T12:34:01.236Z,97246.78
2023-03-27T12:36:07.648Z,97248.03
2023-03-27T12:38:18.636Z,97248.53
2023-03-27T12:40:32.831Z,97243.34
2023-03-27T12:42:45.205Z,97251.00
2023-03-27T12:45:06.642Z,97252.84
2023-03-27T12:47:18.952Z,97250.19
2023-03-27T12:49:47.724Z,97256.06
2023-03-27T12:52:05.191Z,97244.59
2023-03-27T12:54:28.649Z,97269.97
2023-03-27T12:56:39.355Z,97270.59
2023-03-27T12:58:43.518Z,97275.31
2023-03-27T13:00:58.372Z,97269.47
2023-03-27T13:03:43.721Z,97262.25
2023-03-27T13:06:12.531Z,97259.50
2023-03-27T13:08:46.199Z,97260.84
2023-03-27T13:10:59.468Z,97281.78
2023-03-27T13:13:33.611Z,97276.31
2023-03-27T13:15:58.814Z,97279.44
2023-03-27T13:18:34.591Z,97280.91
2023-03-27T13:20:46.916Z,97284.66
2023-03-27T13:23:00.647Z,97287.28
2023-03-27T13:25:26.163Z,97286.16
2023-03-27T13:27:45.096Z,97284.69
2023-03-27T13:29:52.459Z,97284.69
2023-03-27T13:32:07.275Z,97289.91
2023-03-27T13:34:34.258Z,97285.66
2023-03-27T13:36:42.939Z,97310.19
2023-03-27T13:39:15.677Z,97295.16
2023-03-27T13:41:58.846Z,97305.28
2023-03-27T13:44:13.593Z,97307.75
2023-03-27T13:46:24.381Z,97305.44
2023-03-27T13:49:05.530Z,97306.72
2023-03-27T13:51:40.027Z,97298.88
2023-03-27T13:53:53.024Z,97311.97
2023-03-27T13:56:40.847Z,97318.03
2023-03-27T13:59:15.039Z,97313.91
2023-03-27T14:01:34.022Z,97311.31
2023-03-27T14:04:19.033Z,97318.34
2023-03-27T14:07:02.545Z,97318.19
2023-03-27T14:09:11.645Z,97318.19
2023-03-27T14:11:58.961Z,97321.31
2023-03-27T14:14:45.801Z,97318.03
2023-03-27T14:17:36.990Z,97318.84
2023-03-27T14:23:25.322Z,97317.53
2023-03-27T14:25:45.041Z,97324.88
2023-03-27T14:28:03.404Z,97324.03
2023-03-27T14:30:09.766Z,97328.97
2023-03-27T14:32:18.348Z,97337.94
2023-03-27T14:34:33.206Z,97332.03
2023-03-27T14:36:56.020Z,97331.09
2023-03-27T14:39:15.849Z,97336.47
2023-03-27T14:41:25.455Z,97340.75
2023-03-27T14:43:33.038Z,97341.69
2023-03-27T14:45:39.208Z,97340.06
2023-03-27T14:47:48.310Z,97335.81
2023-03-27T14:49:58.795Z,97343.50
2023-03-27T14:52:24.958Z,97339.94
2023-03-27T14:55:02.073Z,97342.06
2023-03-27T14:57:14.093Z,97337.69
2023-03-27T14:59:42.729Z,97336.50
2023-03-27T15:01:50.213Z,97338.31
2023-03-27T15:03:55.628Z,97336.50
2023-03-27T15:06:04.668Z,97346.16
2023-03-27T15:08:19.803Z,97336.84
2023-03-27T15:10:51.486Z,97339.78
2023-03-27T15:13:27.900Z,97334.41
2023-03-27T15:15:38.849Z,97339.63
2023-03-27T15:17:45.317Z,97332.09
2023-03-27T15:20:16.266Z,97329.47
2023-03-27T15:22:24.346Z,97331.13
2023-03-27T15:24:34.518Z,97340.94
2023-03-27T15:26:38.369Z,97335.84
2023-03-27T15:28:43.694Z,97331.41
2023-03-27T15:30:51.264Z,97335.69
2023-03-27T15:32:56.566Z,97331.59
2023-03-27T15:35:03.356Z,97327.84
2023-03-27T15:37:13.569Z,97328.81
2023-03-27T15:39:21.566Z,97324.72
2023-03-27T15:41:46.335Z,97327.19
2023-03-27T15:43:51.507Z,97335.03
2023-03-27T15:46:13.978Z,97336.84
2023-03-27T15:48:19.427Z,97343.84
2023-03-27T15:50:24.616Z,97343.84
2023-03-27T15:52:31.746Z,97342.69
2023-03-27T15:54:54.580Z,97338.47
2023-03-27T15:57:10.217Z,97346.16
2023-03-27T15:59:16.066Z,97354.50
2023-03-27T16:01:22.365Z,97360.56
2023-03-27T16:03:27.511Z,97361.00
2023-03-27T16:05:32.351Z,97360.56
2023-03-27T16:09:02.725Z,97357.63
2023-03-27T16:11:12.104Z,97348.78
2023-03-27T16:22:22.624Z,97371.28
2023-03-27T16:27:52.903Z,97369.81
2023-03-27T16:30:02.921Z,97382.91
2023-03-27T16:32:08.816Z,97386.50
2023-03-27T16:34:48.371Z,97384.84
2023-03-27T16:38:15.711Z,97389.13
2023-03-27T16:44:44.741Z,97406.91
2023-03-27T16:47:21.794Z,97400.06
2023-03-27T16:51:16.252Z,97391.22
2023-03-27T16:54:20.791Z,97402.66
2023-03-27T16:57:23.722Z,97398.75
2023-03-27T17:00:10.662Z,97386.50
2023-03-27T17:02:21.860Z,97401.06
2023-03-27T17:04:29.201Z,97398.97
2023-03-27T17:06:33.266Z,97399.97
2023-03-27T17:08:37.146Z,97409.56
2023-03-27T17:10:41.025Z,97419.84
2023-03-27T17:12:44.920Z,97410.19
2023-03-27T17:14:48.910Z,97414.75
2023-03-27T17:16:52.788Z,97417.69
2023-03-27T17:18:58.418Z,97423.75
2023-03-27T17:21:02.287Z,97430.94
2023-03-27T17:23:06.221Z,97427.31
2023-03-27T17:25:11.315Z,97433.84
2023-03-27T17:27:15.294Z,97438.91
2023-03-27T17:29:19.338Z,97441.84
2023-03-27T17:31:23.497Z,97439.38
2023-03-27T17:33:27.757Z,97448.72
2023-03-27T17:35:33.087Z,97446.09
2023-03-27T17:37:37.000Z,97445.28
2023-03-27T17:39:41.143Z,97457.56
2023-03-27T17:58:06.008Z,97494.84
2023-03-27T18:00:25.325Z,97487.50
2023-03-27T18:02:32.038Z,97488.47
2023-03-27T18:04:39.608Z,97488.88
2023-03-27T18:06:55.852Z,97509.19
2023-03-27T18:09:00.037Z,97507.25
2023-03-27T18:11:08.462Z,97499.22
2023-03-27T18:13:17.004Z,97507.06
2023-03-27T18:15:24.000Z,97507.91
2023-03-27T18:17:32.034Z,97507.91
2023-03-27T18:19:39.119Z,97511.34
2023-03-27T18:21:44.447Z,97509.69
2023-03-27T18:23:51.521Z,97527.34
2023-03-27T18:25:57.652Z,97526.22
2023-03-27T18:28:01.815Z,97536.69
2023-03-27T18:30:11.529Z,97539.31
2023-03-27T18:32:15.951Z,97544.38
2023-03-27T18:34:20.641Z,97548.78
2023-03-27T18:36:24.882Z,97546.84
2023-03-27T18:38:29.728Z,97547.97
2023-03-27T18:40:33.973Z,97559.25
2023-03-27T18:42:38.644Z,97563.53
2023-03-27T18:44:42.775Z,97566.13
2023-03-27T18:46:48.370Z,97577.09
2023-03-27T18:48:52.628Z,97570.25
2023-03-27T18:50:59.257Z,97576.28
2023-03-27T18:53:03.632Z,97580.72
2023-03-27T18:55:13.054Z,97569.25
2023-03-27T18:57:19.993Z,97577.28
2023-03-27T18:59:24.358Z,97577.28
2023-03-27T19:01:30.212Z,97583.31
2023-03-27T19:03:36.384Z,97582.66
2023-03-27T19:05:40.689Z,97589.38
2023-03-27T19:07:47.150Z,97591.03
2023-03-27T19:09:51.364Z,97589.72
2023-03-27T19:12:00.583Z,97583.00
2023-03-27T19:14:26.174Z,97589.72
2023-03-27T19:16:53.354Z,97585.63
2023-03-27T19:19:18.930Z,97587.44
2023-03-27T19:21:25.965Z,97590.84
2023-03-27T19:23:41.689Z,97590.56
2023-03-27T19:25:48.895Z,97586.16
2023-03-27T19:27:55.008Z,97579.13
2023-03-27T19:29:59.329Z,97582.41
2023-03-27T19:32:06.629Z,97585.03
2023-03-27T19:34:15.771Z,97590.25
2023-03-27T19:36:21.846Z,97582.13
2023-03-27T19:38:30.757Z,97579.94
2023-03-27T19:40:34.967Z,97575.69
2023-03-27T19:42:42.279Z,97576.03
2023-03-27T19:44:46.410Z,97586.38
2023-03-27T19:46:50.404Z,97598.97
2023-03-27T19:48:54.433Z,97628.66
2023-03-27T19:58:58.909Z,97608.19
2023-03-27T20:21:47.788Z,97633.09
2023-03-27T20:27:08.437Z,97631.81
2023-03-27T20:34:04.332Z,97637.38
2023-03-27T20:40:24.603Z,97628.44
2023-03-27T20:42:38.696Z,97635.91
2023-03-27T20:56:57.540Z,97678.22
2023-03-27T20:59:01.559Z,97675.16
2023-03-27T21:01:06.646Z,97676.53
2023-03-27T21:03:11.870Z,97668.81
2023-03-27T21:05:16.363Z,97669.44
2023-03-27T21:07:20.411Z,97671.94
2023-03-27T21:09:24.446Z,97656.25
2023-03-27T21:11:30.294Z,97645.97
2023-03-27T21:13:38.252Z,97648.88
2023-03-27T21:15:44.042Z,97641.88
2023-03-27T21:17:48.042Z,97641.53
2023-03-27T21:19:52.068Z,97647.75
2023-03-27T21:21:56.294Z,97639.44
2023-03-27T21:24:00.143Z,97644.53
2023-03-27T21:26:04.034Z,97647.16
2023-03-27T21:28:07.956Z,97652.59
2023-03-27T21:30:16.372Z,97649.59
2023-03-27T21:32:20.436Z,97668.06
2023-03-27T21:34:24.792Z,97673.75
2023-03-27T21:36:29.660Z,97678.31
2023-03-27T21:38:33.904Z,97676.88
2023-03-27T21:40:39.079Z,97680.72
2023-03-27T21:42:43.074Z,97672.50
2023-03-27T21:44:51.595Z,97670.84
2023-03-27T21:46:58.991Z,97670.84
2023-03-27T21:49:02.856Z,97680.47
2023-03-27T21:51:08.222Z,97674.94
2023-03-27T21:53:13.372Z,97678.22
2023-03-27T21:55:17.586Z,97680.72
2023-03-27T21:57:22.156Z,97675.63
2023-03-27T21:59:28.176Z,97684.28
2023-03-27T22:01:32.112Z,97684.13
2023-03-27T22:03:37.839Z,97692.81
2023-03-27T22:05:41.885Z,97693.25
2023-03-27T22:07:46.330Z,97691.44
2023-03-27T22:09:53.043Z,97691.31
2023-03-27T22:11:57.359Z,97703.44
2023-03-27T22:14:01.721Z,97699.97
2023-03-27T22:16:09.825Z,97706.06
2023-03-27T22:18:14.060Z,97701.41
2023-03-27T22:20:19.823Z,97703.22
2023-03-27T22:22:23.985Z,97704.97
2023-03-27T22:24:27.962Z,97714.34
2023-03-27T22:26:34.020Z,97715.66
2023-03-27T22:28:38.006Z,97716.28
2023-03-27T22:30:42.792Z,97716.28
2023-03-27T22:32:46.760Z,97719.72
2023-03-27T22:34:51.325Z,97720.66
2023-03-27T22:36:56.860Z,97717.91
2023-03-27T22:39:00.939Z,97721.22
2023-03-27T22:41:06.012Z,97725.63
2023-03-27T22:43:10.135Z,97727.25
2023-03-27T22:45:14.150Z,97732.78
2023-03-27T22:47:18.151Z,97729.50
2023-03-27T22:49:22.747Z,97732.94
2023-03-27T22:51:28.726Z,97732.94
2023-03-27T22:53:34.157Z,97736.22
2023-03-27T22:55:38.143Z,97733.59
2023-03-27T22:57:42.157Z,97740.63
2023-03-27T22:59:46.249Z,97738.03
2023-03-27T23:01:50.304Z,97738.41
2023-03-27T23:03:54.496Z,97743.25
2023-03-27T23:05:58.891Z,97744.06
2023-03-27T23:08:03.058Z,97743.94
2023-03-27T23:10:10.685Z,97744.31
2023-03-27T23:12:14.728Z,97748.84
2023-03-27T23:14:18.729Z,97749.00
2023-03-27T23:16:22.723Z,97739.66
2023-03-27T23:18:27.175Z,97746.16
2023-03-27T23:20:31.388Z,97749.31
2023-03-27T23:22:35.476Z,97751.47
2023-03-27T23:24:39.457Z,97753.13
2023-03-27T23:26:44.863Z,97753.72
2023-03-27T23:28:48.864Z,97758.66
2023-03-27T23:30:56.363Z,97765.81
2023-03-27T23:33:00.392Z,97765.69
2023-03-27T23:35:04.620Z,97770.47
2023-03-27T23:37:08.749Z,97777.72
2023-03-27T23:39:12.723Z,97776.38
2023-03-27T23:41:17.170Z,97772.94
2023-03-27T23:43:22.479Z,97776.50
2023-03-27T23:45:26.572Z,97782.59
2023-03-27T23:47:31.134Z,97779.00
2023-03-27T23:49:35.299Z,97791.38
2023-03-27T23:51:39.617Z,97788.63
2023-03-27T23:53:43.777Z,97794.16
2023-03-27T23:55:47.771Z,97789.31
2023-03-27T23:57:51.837Z,97787.16
2023-03-27T23:59:57.230Z,97791.38
